createdAt,value
2017-11-11T00:00:10.908Z,83.80
2017-11-11T00:02:38.382Z,84.10
2017-11-11T00:05:06.650Z,84.60
2017-11-11T00:07:34.101Z,84.50
2017-11-11T00:10:01.597Z,84.60
2017-11-11T00:12:29.092Z,84.40
2017-11-11T00:14:56.587Z,84.40
2017-11-11T00:17:24.822Z,84.60
2017-11-11T00:19:52.284Z,84.50
2017-11-11T00:22:19.772Z,85.30
2017-11-11T00:24:47.241Z,84.70
2017-11-11T00:27:15.528Z,84.70
2017-11-11T00:29:43.755Z,84.70
2017-11-11T00:32:11.272Z,84.70
2017-11-11T00:34:39.578Z,84.90
2017-11-11T00:37:07.895Z,85.10
2017-11-11T00:39:35.457Z,85.10
2017-11-11T00:42:02.924Z,85.10
2017-11-11T00:44:31.238Z,84.70
2017-11-11T00:46:58.713Z,85.20
2017-11-11T00:49:26.502Z,85.20
2017-11-11T00:51:53.960Z,85.40
2017-11-11T00:54:21.543Z,85.00
2017-11-11T00:56:49.025Z,85.20
2017-11-11T00:59:17.266Z,85.60
2017-11-11T01:01:44.724Z,85.60
2017-11-11T01:04:12.185Z,85.30
2017-11-11T01:06:39.695Z,85.20
2017-11-11T01:09:07.173Z,84.80
2017-11-11T01:11:34.874Z,85.00
2017-11-11T01:14:02.337Z,85.30
2017-11-11T01:16:29.886Z,85.50
2017-11-11T01:18:57.353Z,85.30
2017-11-11T01:21:26.328Z,85.50
2017-11-11T01:23:53.805Z,85.50
2017-11-11T01:26:21.267Z,85.10
2017-11-11T01:28:49.618Z,85.10
2017-11-11T01:31:17.997Z,85.70
2017-11-11T01:33:45.538Z,85.00
2017-11-11T01:36:13.018Z,85.00
2017-11-11T01:38:40.496Z,84.80
2017-11-11T01:41:08.719Z,84.80
2017-11-11T01:43:36.185Z,84.90
2017-11-11T01:46:03.656Z,84.60
2017-11-11T01:48:31.120Z,84.40
2017-11-11T01:50:58.623Z,84.50
2017-11-11T01:53:26.848Z,84.80
2017-11-11T01:55:54.328Z,84.70
2017-11-11T01:58:21.812Z,84.70
2017-11-11T02:00:50.096Z,84.50
2017-11-11T02:03:18.320Z,84.60
2017-11-11T02:05:45.803Z,84.50
2017-11-11T02:08:13.277Z,84.60
2017-11-11T02:10:41.524Z,84.60
2017-11-11T02:13:09.332Z,84.50
2017-11-11T02:15:36.787Z,84.80
2017-11-11T02:18:05.021Z,84.20
2017-11-11T02:20:32.522Z,84.20
2017-11-11T02:23:00.751Z,84.00
2017-11-11T02:25:28.207Z,84.00
2017-11-11T02:27:55.753Z,83.90
2017-11-11T02:30:23.231Z,84.00
2017-11-11T02:32:50.748Z,84.10
2017-11-11T02:35:18.996Z,84.30
2017-11-11T02:37:46.573Z,84.20
2017-11-11T02:40:14.862Z,84.30
2017-11-11T02:42:43.967Z,84.40
2017-11-11T02:45:11.432Z,84.40
2017-11-11T02:47:38.902Z,84.50
2017-11-11T02:50:06.379Z,84.60
2017-11-11T02:52:33.839Z,84.60
2017-11-11T02:55:01.324Z,84.50
2017-11-11T02:57:28.811Z,84.80
2017-11-11T02:59:57.071Z,84.50
2017-11-11T03:02:25.300Z,84.50
2017-11-11T03:04:52.797Z,84.40
2017-11-11T03:07:21.048Z,85.00
2017-11-11T03:09:48.560Z,84.30
2017-11-11T03:12:16.798Z,84.10
2017-11-11T03:14:44.294Z,84.10
2017-11-11T03:17:12.541Z,83.90
2017-11-11T03:19:40.010Z,83.70
2017-11-11T03:22:07.498Z,83.50
2017-11-11T03:24:35.049Z,83.50
2017-11-11T03:27:03.324Z,83.20
2017-11-11T03:29:31.550Z,83.30
2017-11-11T03:31:59.036Z,83.30
2017-11-11T03:34:26.495Z,82.90
2017-11-11T03:36:53.957Z,83.00
2017-11-11T03:39:21.430Z,82.80
2017-11-11T03:41:49.852Z,82.80
2017-11-11T03:44:17.321Z,82.70
2017-11-11T03:46:44.859Z,83.10
2017-11-11T03:49:12.339Z,82.50
2017-11-11T03:51:39.804Z,82.50
2017-11-11T03:54:07.304Z,82.10
2017-11-11T03:56:35.535Z,82.80
2017-11-11T03:59:03.052Z,82.10
2017-11-11T04:01:31.269Z,82.20
2017-11-11T04:03:58.742Z,82.20
2017-11-11T04:06:26.214Z,82.10
2017-11-11T04:08:53.991Z,81.90
2017-11-11T04:11:22.238Z,82.30
2017-11-11T04:13:49.783Z,82.30
2017-11-11T04:16:17.259Z,81.70
2017-11-11T04:18:44.724Z,82.20
2017-11-11T04:21:12.210Z,82.40
2017-11-11T04:23:39.677Z,82.40
2017-11-11T04:26:07.911Z,81.70
2017-11-11T04:28:36.196Z,81.90
2017-11-11T04:31:03.743Z,81.80
2017-11-11T04:33:31.216Z,81.90
2017-11-11T04:35:58.847Z,81.70
2017-11-11T04:38:26.344Z,81.40
2017-11-11T04:40:54.570Z,80.60
2017-11-11T04:43:22.024Z,80.90
2017-11-11T04:45:49.518Z,80.60
2017-11-11T04:48:16.974Z,80.70
2017-11-11T04:50:44.718Z,80.60
2017-11-11T04:53:12.203Z,80.40
2017-11-11T04:55:39.679Z,80.30
2017-11-11T04:58:07.152Z,80.40
2017-11-11T05:00:35.392Z,80.20
2017-11-11T05:03:02.929Z,80.10
2017-11-11T05:05:31.226Z,80.40
2017-11-11T05:07:58.747Z,79.70
2017-11-11T05:10:26.243Z,79.60
2017-11-11T05:12:53.948Z,80.00
2017-11-11T05:15:22.263Z,80.10
2017-11-11T05:17:49.844Z,80.10
2017-11-11T05:20:17.312Z,79.60
2017-11-11T05:22:44.887Z,79.80
2017-11-11T05:25:12.356Z,80.10
2017-11-11T05:27:40.582Z,79.40
2017-11-11T05:30:08.264Z,79.20
2017-11-11T05:32:35.731Z,80.10
2017-11-11T05:35:03.549Z,79.70
2017-11-11T05:37:31.084Z,79.30
2017-11-11T05:39:59.321Z,79.40
2017-11-11T05:42:26.788Z,79.40
2017-11-11T05:44:54.277Z,79.40
2017-11-11T05:47:22.525Z,79.40
2017-11-11T05:49:50.048Z,79.40
2017-11-11T05:52:17.530Z,80.00
2017-11-11T05:54:45.009Z,79.80
2017-11-11T05:57:12.472Z,79.80
2017-11-11T05:59:40.457Z,79.70
2017-11-11T06:02:08.732Z,79.40
2017-11-11T06:04:36.986Z,79.80
2017-11-11T06:07:04.459Z,79.80
2017-11-11T06:09:32.705Z,79.00
2017-11-11T06:12:00.183Z,79.30
2017-11-11T06:14:27.681Z,79.70
2017-11-11T06:16:55.168Z,80.20
2017-11-11T06:19:22.639Z,79.90
2017-11-11T06:21:50.396Z,80.20
2017-11-11T06:24:17.884Z,79.80
2017-11-11T06:26:45.350Z,80.00
2017-11-11T06:29:12.836Z,79.90
2017-11-11T06:31:41.066Z,81.00
2017-11-11T06:34:08.550Z,80.30
2017-11-11T06:36:36.779Z,81.00
2017-11-11T06:39:04.418Z,80.30
2017-11-11T06:41:31.905Z,81.00
2017-11-11T06:43:59.652Z,80.50
2017-11-11T06:46:27.128Z,80.10
2017-11-11T06:48:54.589Z,80.90
2017-11-11T06:51:22.093Z,80.80
2017-11-11T06:53:50.367Z,80.60
2017-11-11T06:56:18.612Z,81.30
2017-11-11T06:58:46.095Z,81.30
2017-11-11T07:01:13.564Z,82.80
2017-11-11T07:03:41.837Z,82.80
2017-11-11T07:06:10.403Z,83.80
2017-11-11T07:08:37.868Z,83.00
2017-11-11T07:11:06.136Z,84.30
2017-11-11T07:13:33.646Z,84.40
2017-11-11T07:16:01.119Z,84.60
2017-11-11T07:18:28.588Z,85.70
2017-11-11T07:20:56.183Z,85.00
2017-11-11T07:23:23.648Z,85.00
2017-11-11T07:25:51.944Z,86.10
2017-11-11T07:28:20.894Z,86.30
2017-11-11T07:30:48.404Z,86.40
2017-11-11T07:33:16.732Z,86.60
2017-11-11T07:35:44.252Z,86.50
2017-11-11T07:38:11.732Z,88.70
2017-11-11T07:40:39.245Z,88.70
2017-11-11T07:43:07.499Z,88.90
2017-11-11T07:45:35.231Z,88.90
2017-11-11T07:48:02.717Z,89.30
2017-11-11T07:50:30.984Z,89.60
2017-11-11T07:52:58.557Z,89.60
2017-11-11T07:55:26.052Z,90.00
2017-11-11T07:57:53.561Z,89.50
2017-11-11T08:00:21.064Z,90.00
2017-11-11T08:02:49.344Z,90.10
2017-11-11T08:05:17.689Z,90.00
2017-11-11T08:07:45.161Z,90.00
2017-11-11T08:10:13.460Z,90.10
2017-11-11T08:12:41.684Z,90.30
2017-11-11T08:15:09.192Z,90.30
2017-11-11T08:17:36.680Z,90.10
2017-11-11T08:20:04.163Z,90.30
2017-11-11T08:22:31.659Z,90.50
2017-11-11T08:24:59.940Z,90.20
2017-11-11T08:27:28.181Z,90.50
2017-11-11T08:29:55.690Z,90.50
2017-11-11T08:32:23.146Z,90.40
2017-11-11T08:34:50.607Z,90.10
2017-11-11T08:37:18.179Z,90.40
2017-11-11T08:39:45.684Z,90.60
2017-11-11T08:42:13.167Z,90.50
2017-11-11T08:44:41.007Z,90.40
2017-11-11T08:47:08.487Z,90.10
2017-11-11T08:49:36.708Z,90.70
2017-11-11T08:52:04.680Z,90.30
2017-11-11T08:54:32.340Z,90.20
2017-11-11T08:57:00.081Z,90.00
2017-11-11T08:59:28.316Z,90.40
2017-11-11T09:01:56.776Z,90.30
2017-11-11T09:04:24.401Z,90.20
2017-11-11T09:06:53.305Z,90.20
2017-11-11T09:09:20.782Z,90.20
2017-11-11T09:11:48.303Z,90.10
2017-11-11T09:14:15.799Z,90.30
2017-11-11T09:16:43.412Z,90.30
2017-11-11T09:19:10.883Z,90.30
2017-11-11T09:21:39.154Z,89.40
2017-11-11T09:24:07.624Z,90.40
2017-11-11T09:26:46.871Z,90.30
2017-11-11T09:29:15.375Z,90.10
2017-11-11T09:31:42.881Z,90.00
2017-11-11T09:34:11.118Z,90.30
2017-11-11T09:36:38.688Z,90.00
2017-11-11T09:39:07.289Z,90.20
2017-11-11T09:41:35.447Z,90.40
2017-11-11T09:44:03.183Z,90.10
2017-11-11T09:46:31.695Z,90.50
2017-11-11T09:48:59.485Z,90.50
2017-11-11T09:51:27.053Z,90.60
2017-11-11T09:53:54.742Z,90.70
2017-11-11T09:56:23.019Z,90.80
2017-11-11T09:58:50.788Z,90.80
2017-11-11T10:01:19.484Z,91.00
2017-11-11T10:03:46.948Z,91.00
2017-11-11T10:06:14.741Z,91.00
2017-11-11T10:08:42.491Z,91.00
2017-11-11T10:11:11.403Z,90.90
2017-11-11T10:13:38.901Z,91.10
2017-11-11T10:16:07.676Z,91.10
2017-11-11T10:18:35.162Z,91.10
2017-11-11T10:21:02.690Z,90.90
2017-11-11T10:23:30.370Z,90.70
2017-11-11T10:25:58.684Z,91.20
2017-11-11T10:28:26.200Z,91.10
2017-11-11T10:30:55.092Z,90.90
2017-11-11T10:33:22.661Z,90.60
2017-11-11T10:35:50.141Z,91.20
2017-11-11T10:38:18.371Z,91.40
2017-11-11T10:40:45.931Z,91.40
2017-11-11T10:43:13.414Z,90.90
2017-11-11T10:45:40.897Z,91.40
2017-11-11T10:48:09.149Z,91.20
2017-11-11T10:50:36.715Z,91.20
2017-11-11T10:53:04.970Z,91.10
2017-11-11T10:55:32.428Z,91.20
2017-11-11T10:58:00.631Z,91.60
2017-11-11T11:00:28.120Z,91.70
2017-11-11T11:02:56.159Z,91.50
2017-11-11T11:05:24.760Z,91.70
2017-11-11T11:07:53.126Z,91.80
2017-11-11T11:10:21.360Z,91.90
2017-11-11T11:12:49.019Z,91.90
2017-11-11T11:15:16.492Z,91.60
2017-11-11T11:17:44.010Z,91.90
2017-11-11T11:20:11.502Z,92.10
2017-11-11T11:22:39.099Z,92.10
2017-11-11T11:25:07.472Z,92.20
2017-11-11T11:27:34.969Z,91.90
2017-11-11T11:30:03.194Z,92.10
2017-11-11T11:32:30.709Z,92.10
2017-11-11T11:34:58.207Z,91.80
2017-11-11T11:37:25.677Z,92.20
2017-11-11T11:39:53.155Z,92.20
2017-11-11T11:42:20.620Z,92.40
2017-11-11T11:44:48.960Z,92.60
2017-11-11T11:47:17.216Z,92.40
2017-11-11T11:49:44.712Z,92.40
2017-11-11T11:52:12.177Z,92.60
2017-11-11T11:54:39.718Z,92.70
2017-11-11T11:57:07.198Z,92.20
2017-11-11T11:59:34.761Z,92.40
2017-11-11T12:02:02.312Z,92.20
2017-11-11T12:04:29.993Z,92.20
2017-11-11T12:06:57.513Z,92.30
2017-11-11T12:09:24.988Z,92.10
2017-11-11T12:11:52.492Z,92.50
2017-11-11T12:14:19.985Z,92.60
2017-11-11T12:16:47.467Z,92.40
2017-11-11T12:19:14.945Z,92.20
2017-11-11T12:21:42.420Z,92.60
2017-11-11T12:24:10.795Z,92.40
2017-11-11T12:26:39.101Z,92.20
2017-11-11T12:29:06.604Z,92.20
2017-11-11T12:31:34.093Z,92.50
2017-11-11T12:34:01.609Z,92.50
2017-11-11T12:36:29.076Z,92.60
2017-11-11T12:38:56.592Z,92.50
2017-11-11T12:41:24.203Z,92.40
2017-11-11T12:43:51.721Z,92.50
2017-11-11T12:46:19.224Z,92.60
2017-11-11T12:48:46.696Z,92.60
2017-11-11T12:51:14.996Z,92.60
2017-11-11T12:53:43.246Z,92.40
2017-11-11T12:56:10.892Z,92.40
2017-11-11T12:58:38.376Z,92.70
2017-11-11T13:01:05.881Z,92.50
2017-11-11T13:03:33.378Z,92.60
2017-11-11T13:06:00.949Z,92.60
2017-11-11T13:08:29.444Z,92.80
2017-11-11T13:10:57.693Z,92.70
2017-11-11T13:13:26.893Z,92.50
2017-11-11T13:15:54.470Z,92.50
2017-11-11T13:18:22.730Z,92.60
2017-11-11T13:20:50.249Z,92.60
2017-11-11T13:23:18.459Z,92.50
2017-11-11T13:25:45.973Z,92.40
2017-11-11T13:28:13.465Z,92.90
2017-11-11T13:30:41.765Z,92.50
2017-11-11T13:33:09.550Z,92.50
2017-11-11T13:35:37.105Z,92.60
2017-11-11T13:38:04.590Z,92.40
2017-11-11T13:40:32.829Z,92.50
2017-11-11T13:43:00.382Z,92.50
2017-11-11T13:45:27.853Z,92.10
2017-11-11T13:47:55.413Z,92.00
2017-11-11T13:50:23.716Z,91.80
2017-11-11T13:52:51.943Z,91.60
2017-11-11T13:55:19.440Z,91.60
2017-11-11T13:57:46.979Z,91.60
2017-11-11T14:00:16.049Z,91.60
2017-11-11T14:02:43.514Z,91.60
2017-11-11T14:05:10.992Z,91.40
2017-11-11T14:07:39.261Z,91.30
2017-11-11T14:10:06.803Z,91.30
2017-11-11T14:12:34.553Z,91.30
2017-11-11T14:15:02.052Z,91.60
2017-11-11T14:17:30.406Z,91.60
2017-11-11T14:19:58.250Z,91.60
2017-11-11T14:22:25.757Z,91.40
2017-11-11T14:24:53.300Z,91.40
2017-11-11T14:27:20.788Z,91.40
2017-11-11T14:29:48.334Z,91.40
2017-11-11T14:32:15.965Z,91.40
2017-11-11T14:34:43.488Z,91.60
2017-11-11T14:37:12.038Z,91.60
2017-11-11T14:39:39.608Z,91.50
2017-11-11T14:42:07.101Z,91.70
2017-11-11T14:44:35.657Z,91.60
2017-11-11T14:47:03.335Z,91.50
2017-11-11T14:49:30.878Z,91.90
2017-11-11T14:51:58.374Z,91.60
2017-11-11T14:54:25.927Z,91.50
2017-11-11T14:56:53.384Z,91.60
2017-11-11T14:59:22.359Z,91.40
2017-11-11T15:01:49.829Z,91.30
2017-11-11T15:04:18.156Z,91.50
2017-11-11T15:06:45.824Z,91.50
2017-11-11T15:09:13.317Z,91.30
2017-11-11T15:11:40.810Z,91.60
2017-11-11T15:14:09.050Z,91.60
2017-11-11T15:16:36.593Z,91.60
2017-11-11T15:19:04.712Z,91.30
2017-11-11T15:21:32.464Z,91.50
2017-11-11T15:24:00.715Z,91.60
2017-11-11T15:26:28.200Z,91.60
2017-11-11T15:28:56.486Z,91.50
2017-11-11T15:31:24.939Z,91.70
2017-11-11T15:33:52.411Z,91.70
2017-11-11T15:36:20.760Z,91.50
2017-11-11T15:38:48.254Z,91.50
2017-11-11T15:41:16.508Z,91.40
2017-11-11T15:43:44.023Z,91.40
2017-11-11T15:46:11.511Z,91.60
2017-11-11T15:48:39.026Z,91.40
2017-11-11T15:51:06.665Z,91.30
2017-11-11T15:53:34.902Z,91.60
2017-11-11T15:56:02.376Z,91.50
2017-11-11T15:58:29.859Z,91.60
2017-11-11T16:00:57.402Z,91.60
2017-11-11T16:03:24.956Z,91.60
2017-11-11T16:05:52.440Z,91.60
2017-11-11T16:08:20.816Z,91.40
2017-11-11T16:10:49.072Z,91.50
2017-11-11T16:13:16.559Z,91.50
2017-11-11T16:15:44.973Z,91.40
2017-11-11T16:18:12.433Z,91.40
2017-11-11T16:20:39.932Z,91.40
2017-11-11T16:23:07.664Z,91.50
2017-11-11T16:25:35.701Z,91.60
2017-11-11T16:28:03.977Z,91.30
2017-11-11T16:30:31.534Z,91.30
2017-11-11T16:32:59.815Z,91.30
2017-11-11T16:35:27.375Z,91.30
2017-11-11T16:37:54.912Z,91.30
2017-11-11T16:40:23.291Z,91.50
2017-11-11T16:42:50.797Z,91.60
2017-11-11T16:45:18.406Z,91.10
2017-11-11T16:47:45.896Z,91.60
2017-11-11T16:50:13.402Z,91.60
2017-11-11T16:52:40.876Z,91.80
2017-11-11T16:55:09.252Z,91.90
2017-11-11T16:57:36.931Z,91.90
2017-11-11T17:00:05.236Z,91.90
2017-11-11T17:02:32.961Z,91.80
2017-11-11T17:05:00.532Z,91.90
2017-11-11T17:07:28.222Z,92.10
2017-11-11T17:09:55.748Z,92.10
2017-11-11T17:12:23.242Z,92.20
2017-11-11T17:14:50.745Z,92.20
2017-11-11T17:17:18.263Z,92.20
2017-11-11T17:19:45.749Z,92.20
2017-11-11T17:22:13.305Z,92.20
2017-11-11T17:24:40.906Z,92.30
2017-11-11T17:27:09.220Z,92.20
2017-11-11T17:29:36.791Z,92.10
2017-11-11T17:32:04.288Z,92.20
2017-11-11T17:34:31.869Z,92.30
2017-11-11T17:37:00.194Z,92.40
2017-11-11T17:39:27.947Z,92.40
2017-11-11T17:41:56.605Z,92.40
2017-11-11T17:44:24.936Z,92.90
2017-11-11T17:46:52.527Z,92.50
2017-11-11T17:49:20.876Z,92.70
2017-11-11T17:51:48.516Z,92.70
2017-11-11T17:54:15.998Z,92.80
2017-11-11T17:56:43.545Z,92.90
2017-11-11T17:59:11.067Z,92.70
2017-11-11T18:01:39.347Z,92.80
2017-11-11T18:04:06.828Z,92.80
2017-11-11T18:06:34.330Z,92.90
2017-11-11T18:09:01.841Z,93.00
2017-11-11T18:11:29.319Z,93.00
2017-11-11T18:13:56.872Z,93.00
2017-11-11T18:16:24.336Z,93.10
2017-11-11T18:18:51.844Z,93.00
2017-11-11T18:21:20.857Z,93.10
2017-11-11T18:23:49.112Z,93.10
2017-11-11T18:26:16.657Z,93.10
2017-11-11T18:28:44.189Z,93.00
2017-11-11T18:31:12.341Z,93.00
2017-11-11T18:33:40.947Z,92.80
2017-11-11T18:36:08.496Z,92.80
2017-11-11T18:38:36.005Z,92.80
2017-11-11T18:41:03.668Z,92.80
2017-11-11T18:43:31.254Z,92.70
2017-11-11T18:45:59.652Z,91.60
2017-11-11T18:48:27.643Z,91.60
2017-11-11T18:50:55.334Z,90.60
2017-11-11T18:53:23.067Z,91.00
2017-11-11T18:55:50.684Z,91.10
2017-11-11T18:58:18.222Z,90.90
2017-11-11T19:00:46.555Z,91.30
2017-11-11T19:03:14.070Z,91.30
2017-11-11T19:05:42.452Z,90.80
2017-11-11T19:08:10.170Z,90.80
2017-11-11T19:10:37.683Z,90.80
2017-11-11T19:13:06.662Z,90.50
2017-11-11T19:15:34.208Z,90.50
2017-11-11T19:18:01.847Z,90.70
2017-11-11T19:20:29.495Z,91.00
2017-11-11T19:22:57.087Z,91.00
2017-11-11T19:25:24.969Z,91.30
2017-11-11T19:27:54.268Z,91.70
2017-11-11T19:30:21.879Z,91.70
2017-11-11T19:32:49.389Z,91.90
2017-11-11T19:35:17.020Z,92.10
2017-11-11T19:37:44.950Z,92.20
2017-11-11T19:40:13.285Z,92.00
2017-11-11T19:42:40.974Z,92.30
2017-11-11T19:45:08.510Z,92.30
2017-11-11T19:47:36.220Z,92.30
2017-11-11T19:50:03.759Z,92.40
2017-11-11T19:52:31.384Z,92.70
2017-11-11T19:54:59.505Z,92.50
2017-11-11T19:57:28.231Z,92.50
2017-11-11T19:59:55.751Z,92.60
2017-11-11T20:02:24.310Z,92.90
2017-11-11T20:04:52.788Z,92.80
2017-11-11T20:07:20.313Z,92.80
2017-11-11T20:09:49.642Z,93.00
2017-11-11T20:12:17.296Z,93.00
2017-11-11T20:14:44.885Z,92.90
2017-11-11T20:17:14.072Z,92.90
2017-11-11T20:19:41.558Z,92.90
2017-11-11T20:22:09.037Z,92.80
2017-11-11T20:24:37.577Z,93.20
2017-11-11T20:27:05.150Z,92.90
2017-11-11T20:29:33.393Z,93.00
2017-11-11T20:32:01.153Z,93.00
2017-11-11T20:34:28.744Z,93.00
2017-11-11T20:36:56.268Z,93.10
2017-11-11T20:39:23.835Z,93.20
2017-11-11T20:41:51.309Z,93.30
2017-11-11T20:44:18.865Z,93.20
2017-11-11T20:46:46.350Z,93.30
2017-11-11T20:49:14.191Z,93.30
2017-11-11T20:51:41.775Z,93.30
2017-11-11T20:54:09.312Z,93.30
2017-11-11T20:56:36.947Z,93.20
2017-11-11T20:59:05.386Z,93.30
2017-11-11T21:01:34.403Z,93.30
2017-11-11T21:04:01.883Z,93.30
2017-11-11T21:06:29.372Z,93.40
2017-11-11T21:08:56.893Z,93.40
2017-11-11T21:11:25.339Z,93.30
2017-11-11T21:13:53.650Z,93.30
2017-11-11T21:16:22.010Z,93.20
2017-11-11T21:18:49.510Z,93.20
2017-11-11T21:21:17.160Z,93.20
2017-11-11T21:23:44.841Z,93.20
2017-11-11T21:26:12.367Z,93.50
2017-11-11T21:28:40.722Z,93.10
2017-11-11T21:31:08.345Z,93.10
2017-11-11T21:33:35.873Z,93.20
2017-11-11T21:36:04.266Z,93.10
2017-11-11T21:38:31.747Z,93.10
2017-11-11T21:41:03.819Z,93.10
2017-11-11T21:43:31.391Z,93.10
2017-11-11T21:45:59.078Z,93.10
2017-11-11T21:48:26.609Z,93.30
2017-11-11T21:50:54.099Z,93.20
2017-11-11T21:53:21.925Z,93.30
2017-11-11T21:55:49.491Z,93.20
2017-11-11T21:58:16.993Z,93.20
2017-11-11T22:00:44.799Z,93.20
2017-11-11T22:03:12.538Z,93.40
2017-11-11T22:05:41.774Z,93.50
2017-11-11T22:08:09.288Z,93.50
2017-11-11T22:10:37.553Z,93.40
2017-11-11T22:13:05.029Z,93.70
2017-11-11T22:15:33.345Z,93.40
2017-11-11T22:18:01.113Z,93.40
2017-11-11T22:20:28.601Z,93.40
2017-11-11T22:22:56.561Z,93.40
2017-11-11T22:25:25.057Z,93.60
2017-11-11T22:27:52.529Z,93.80
2017-11-11T22:30:21.074Z,93.80
2017-11-11T22:32:48.548Z,93.80
2017-11-11T22:35:16.101Z,93.90
2017-11-11T22:37:43.596Z,94.00
2017-11-11T22:40:11.857Z,93.90
2017-11-11T22:42:39.696Z,93.90
2017-11-11T22:45:07.171Z,93.90
2017-11-11T22:47:34.655Z,93.90
2017-11-11T22:50:02.936Z,94.00
2017-11-11T22:52:30.513Z,93.90
2017-11-11T22:54:57.981Z,93.80
2017-11-11T22:57:25.514Z,93.70
2017-11-11T22:59:52.983Z,93.70
2017-11-11T23:02:21.290Z,93.60
2017-11-11T23:04:48.769Z,93.60
2017-11-11T23:07:17.149Z,93.40
2017-11-11T23:09:44.657Z,93.50
2017-11-11T23:12:13.105Z,93.80
2017-11-11T23:14:40.843Z,93.40
2017-11-11T23:17:08.331Z,93.40
2017-11-11T23:19:35.840Z,93.40
2017-11-11T23:22:03.345Z,93.60
2017-11-11T23:24:30.874Z,93.30
2017-11-11T23:26:58.373Z,93.30
2017-11-11T23:29:25.995Z,93.30
2017-11-11T23:31:53.468Z,93.30
2017-11-11T23:34:20.989Z,93.20
2017-11-11T23:36:48.451Z,93.20
2017-11-11T23:39:15.992Z,93.20
2017-11-11T23:41:44.247Z,93.20
2017-11-11T23:44:12.091Z,93.20
2017-11-11T23:46:39.563Z,93.20
2017-11-11T23:49:07.248Z,93.20
2017-11-11T23:51:34.734Z,93.20
2017-11-11T23:54:02.265Z,93.20
2017-11-11T23:56:29.751Z,93.10
2017-11-11T23:58:57.304Z,93.00
